createdAt,value
2019-03-27T00:00:16.209Z,7.85
2019-03-27T00:02:46.908Z,7.85
2019-03-27T00:05:16.741Z,7.86
2019-03-27T00:07:46.078Z,7.74
2019-03-27T00:10:15.808Z,7.79
2019-03-27T00:12:45.148Z,7.69
2019-03-27T00:15:14.613Z,7.69
2019-03-27T00:17:43.997Z,7.74
2019-03-27T00:20:13.863Z,7.75
2019-03-27T00:22:43.204Z,7.71
2019-03-27T00:25:12.705Z,7.67
2019-03-27T00:27:42.315Z,7.63
2019-03-27T00:30:12.090Z,7.63
2019-03-27T00:32:41.428Z,7.56
2019-03-27T00:35:11.007Z,7.49
2019-03-27T00:37:40.405Z,7.51
2019-03-27T00:40:09.970Z,7.58
2019-03-27T00:42:39.306Z,7.50
2019-03-27T00:45:09.373Z,7.57
2019-03-27T00:47:38.958Z,7.59
2019-03-27T00:50:09.222Z,7.62
2019-03-27T00:52:38.905Z,7.58
2019-03-27T00:55:09.771Z,7.56
2019-03-27T00:57:39.128Z,7.55
2019-03-27T01:00:26.599Z,7.60
2019-03-27T01:02:56.004Z,7.51
2019-03-27T01:05:25.352Z,7.51
2019-03-27T01:07:54.973Z,7.46
2019-03-27T01:10:24.302Z,7.42
2019-03-27T01:12:54.776Z,7.34
2019-03-27T01:15:24.108Z,7.43
2019-03-27T01:17:53.443Z,7.36
2019-03-27T01:20:23.115Z,7.37
2019-03-27T01:22:52.546Z,7.39
2019-03-27T01:25:22.132Z,7.33
2019-03-27T01:27:51.746Z,7.34
2019-03-27T01:30:21.163Z,7.35
2019-03-27T01:32:50.500Z,7.26
2019-03-27T01:35:19.834Z,7.30
2019-03-27T01:37:49.473Z,7.23
2019-03-27T01:40:18.806Z,7.15
2019-03-27T01:42:48.141Z,7.24
2019-03-27T01:45:17.779Z,7.23
2019-03-27T01:47:47.112Z,7.23
2019-03-27T01:50:16.452Z,7.25
2019-03-27T01:52:45.807Z,7.18
2019-03-27T01:55:15.123Z,7.20
2019-03-27T01:57:44.788Z,7.24
2019-03-27T02:00:14.565Z,7.17
2019-03-27T02:02:43.893Z,7.18
2019-03-27T02:05:13.435Z,7.15
2019-03-27T02:07:42.776Z,7.09
2019-03-27T02:10:13.559Z,7.09
2019-03-27T02:12:42.885Z,7.04
2019-03-27T02:15:12.666Z,6.98
2019-03-27T02:17:42.236Z,6.96
2019-03-27T02:20:12.012Z,6.94
2019-03-27T02:22:41.344Z,6.83
2019-03-27T02:25:10.750Z,6.79
2019-03-27T02:27:40.084Z,6.77
2019-03-27T02:30:09.977Z,6.75
2019-03-27T02:32:39.314Z,6.68
2019-03-27T02:35:08.653Z,6.66
2019-03-27T02:37:37.987Z,6.65
2019-03-27T02:40:08.338Z,6.62
2019-03-27T02:42:37.996Z,6.57
2019-03-27T02:45:07.512Z,6.51
2019-03-27T02:47:36.874Z,6.51
2019-03-27T02:50:07.846Z,6.51
2019-03-27T02:52:37.186Z,6.52
2019-03-27T02:55:07.613Z,6.50
2019-03-27T02:57:36.934Z,6.49
2019-03-27T03:00:11.950Z,6.44
2019-03-27T03:02:41.277Z,6.46
2019-03-27T03:05:11.258Z,6.36
2019-03-27T03:07:40.587Z,6.37
2019-03-27T03:10:10.865Z,6.35
2019-03-27T03:12:40.197Z,6.32
2019-03-27T03:15:10.086Z,6.34
2019-03-27T03:17:39.417Z,6.29
2019-03-27T03:20:09.288Z,6.24
2019-03-27T03:22:38.671Z,6.19
2019-03-27T03:25:08.844Z,6.20
2019-03-27T03:27:38.187Z,6.15
2019-03-27T03:30:09.719Z,6.17
2019-03-27T03:32:39.043Z,6.16
2019-03-27T03:35:08.919Z,6.08
2019-03-27T03:37:38.246Z,5.97
2019-03-27T03:40:08.429Z,6.03
2019-03-27T03:42:37.765Z,6.05
2019-03-27T03:45:07.545Z,6.00
2019-03-27T03:47:36.866Z,5.97
2019-03-27T03:50:09.347Z,5.89
2019-03-27T03:52:38.946Z,5.83
2019-03-27T03:55:08.525Z,5.78
2019-03-27T03:57:38.209Z,5.69
2019-03-27T04:00:08.292Z,5.58
2019-03-27T04:02:37.620Z,5.56
2019-03-27T04:05:07.888Z,5.58
2019-03-27T04:07:38.307Z,5.61
2019-03-27T04:10:07.913Z,5.62
2019-03-27T04:12:37.246Z,5.62
2019-03-27T04:15:07.504Z,5.62
2019-03-27T04:17:36.845Z,5.61
2019-03-27T04:20:07.520Z,5.60
2019-03-27T04:22:36.922Z,5.61
2019-03-27T04:25:07.196Z,5.60
2019-03-27T04:27:36.583Z,5.62
2019-03-27T04:30:08.517Z,5.64
2019-03-27T04:32:38.940Z,5.57
2019-03-27T04:35:08.432Z,5.66
2019-03-27T04:37:37.984Z,5.70
2019-03-27T04:40:07.849Z,5.71
2019-03-27T04:42:37.181Z,5.79
2019-03-27T04:45:07.090Z,5.78
2019-03-27T04:47:36.525Z,5.68
2019-03-27T04:50:07.187Z,5.73
2019-03-27T04:52:36.520Z,5.75
2019-03-27T04:55:07.690Z,5.77
2019-03-27T04:57:37.020Z,5.79
2019-03-27T05:00:07.686Z,5.81
2019-03-27T05:02:37.021Z,5.83
2019-03-27T05:05:07.650Z,5.81
2019-03-27T05:07:37.068Z,5.83
2019-03-27T05:10:06.638Z,5.73
2019-03-27T05:12:38.843Z,5.71
2019-03-27T05:15:08.451Z,5.74
2019-03-27T05:17:45.672Z,5.74
2019-03-27T05:20:09.301Z,5.72
2019-03-27T05:22:38.717Z,5.66
2019-03-27T05:25:08.607Z,5.66
2019-03-27T05:27:38.920Z,5.63
2019-03-27T05:30:08.687Z,5.60
2019-03-27T05:32:38.084Z,5.59
2019-03-27T05:35:07.483Z,5.54
2019-03-27T05:37:36.824Z,5.48
2019-03-27T05:40:07.792Z,5.43
2019-03-27T05:42:37.417Z,5.42
2019-03-27T05:45:07.179Z,5.43
2019-03-27T05:47:36.534Z,5.40
2019-03-27T05:50:06.610Z,5.41
2019-03-27T05:52:35.943Z,5.41
2019-03-27T05:55:06.819Z,5.40
2019-03-27T05:57:36.147Z,5.43
2019-03-27T06:00:07.194Z,5.44
2019-03-27T06:02:36.517Z,5.45
2019-03-27T06:05:06.592Z,5.38
2019-03-27T06:07:35.922Z,5.35
2019-03-27T06:10:06.600Z,5.35
2019-03-27T06:12:35.930Z,5.32
2019-03-27T06:15:06.704Z,5.28
2019-03-27T06:17:36.034Z,5.24
2019-03-27T06:20:07.181Z,5.29
2019-03-27T06:22:36.511Z,5.32
2019-03-27T06:25:07.651Z,5.35
2019-03-27T06:27:37.316Z,5.34
2019-03-27T06:30:07.493Z,5.42
2019-03-27T06:32:37.093Z,5.36
2019-03-27T06:35:08.838Z,5.32
2019-03-27T06:37:38.415Z,5.42
2019-03-27T06:40:08.182Z,5.52
2019-03-27T06:42:37.513Z,5.47
2019-03-27T06:45:07.385Z,5.54
2019-03-27T06:47:36.712Z,5.63
2019-03-27T06:50:07.482Z,5.70
2019-03-27T06:52:36.900Z,5.78
2019-03-27T06:55:08.065Z,5.83
2019-03-27T06:57:37.394Z,5.86
2019-03-27T07:00:08.936Z,5.85
2019-03-27T07:02:38.313Z,5.88
2019-03-27T07:05:08.029Z,5.94
2019-03-27T07:07:37.360Z,6.04
2019-03-27T07:10:07.865Z,6.01
2019-03-27T07:12:38.128Z,6.02
2019-03-27T07:15:08.976Z,6.05
2019-03-27T07:17:38.419Z,6.09
2019-03-27T07:20:08.485Z,6.20
2019-03-27T07:22:37.818Z,6.22
2019-03-27T07:25:08.797Z,6.32
2019-03-27T07:27:38.130Z,6.37
2019-03-27T07:30:08.215Z,6.40
2019-03-27T07:32:37.541Z,6.49
2019-03-27T07:35:07.523Z,6.58
2019-03-27T07:37:37.825Z,6.69
2019-03-27T07:40:08.216Z,6.84
2019-03-27T07:42:37.539Z,6.89
2019-03-27T07:45:08.423Z,6.92
2019-03-27T07:47:37.754Z,6.94
2019-03-27T07:50:07.728Z,7.02
2019-03-27T07:52:37.060Z,7.04
2019-03-27T07:55:18.762Z,7.06
2019-03-27T07:57:37.860Z,7.17
2019-03-27T08:00:13.663Z,7.18
2019-03-27T08:02:43.168Z,7.22
2019-03-27T08:05:13.062Z,7.24
2019-03-27T08:07:42.491Z,7.34
2019-03-27T08:10:12.165Z,7.42
2019-03-27T08:12:41.976Z,7.45
2019-03-27T08:15:11.645Z,7.55
2019-03-27T08:17:40.991Z,7.59
2019-03-27T08:20:10.964Z,7.62
2019-03-27T08:22:40.337Z,7.75
2019-03-27T08:25:10.109Z,7.82
2019-03-27T08:27:39.444Z,7.89
2019-03-27T08:30:12.069Z,7.98
2019-03-27T08:32:41.451Z,8.09
2019-03-27T08:35:11.524Z,8.23
2019-03-27T08:37:40.961Z,8.36
2019-03-27T08:40:11.032Z,8.42
2019-03-27T08:42:40.468Z,8.38
2019-03-27T08:45:10.877Z,8.44
2019-03-27T08:47:40.213Z,8.48
2019-03-27T08:50:10.890Z,8.38
2019-03-27T08:52:40.219Z,8.45
2019-03-27T08:55:13.416Z,8.55
2019-03-27T08:57:41.149Z,8.56
2019-03-27T09:00:13.165Z,8.57
2019-03-27T09:02:42.511Z,8.53
2019-03-27T09:05:12.453Z,8.58
2019-03-27T09:07:41.780Z,8.46
2019-03-27T09:10:13.350Z,8.51
2019-03-27T09:12:42.682Z,8.62
2019-03-27T09:15:12.680Z,8.72
2019-03-27T09:17:43.083Z,8.77
2019-03-27T09:20:12.944Z,8.90
2019-03-27T09:22:42.272Z,8.99
2019-03-27T09:25:11.828Z,9.05
2019-03-27T09:27:41.156Z,9.10
2019-03-27T09:30:12.960Z,9.24
2019-03-27T09:32:43.375Z,9.28
2019-03-27T09:35:13.215Z,9.28
2019-03-27T09:37:42.633Z,9.38
2019-03-27T09:40:12.330Z,9.39
2019-03-27T09:42:41.663Z,9.44
2019-03-27T09:45:13.098Z,9.51
2019-03-27T09:47:42.482Z,9.49
2019-03-27T09:50:12.151Z,9.38
2019-03-27T09:52:41.476Z,9.45
2019-03-27T09:55:10.896Z,9.51
2019-03-27T09:57:40.299Z,9.60
2019-03-27T10:00:10.560Z,9.67
2019-03-27T10:02:39.895Z,9.72
2019-03-27T10:05:09.818Z,9.73
2019-03-27T10:07:39.420Z,9.83
2019-03-27T10:10:09.080Z,9.91
2019-03-27T10:12:38.413Z,9.96
2019-03-27T10:15:08.375Z,10.06
2019-03-27T10:17:37.705Z,10.18
2019-03-27T10:20:07.678Z,10.38
2019-03-27T10:22:37.000Z,10.55
2019-03-27T10:25:07.668Z,10.64
2019-03-27T10:27:37.001Z,10.54
2019-03-27T10:30:07.668Z,10.68
2019-03-27T10:32:37.005Z,10.79
2019-03-27T10:35:07.001Z,10.73
2019-03-27T10:37:36.364Z,10.74
2019-03-27T10:40:07.968Z,10.68
2019-03-27T10:42:37.307Z,10.72
2019-03-27T10:45:07.369Z,10.78
2019-03-27T10:47:36.774Z,10.57
2019-03-27T10:50:17.453Z,10.68
2019-03-27T10:52:38.328Z,10.70
2019-03-27T10:55:08.130Z,10.75
2019-03-27T10:57:37.478Z,10.82
2019-03-27T11:00:09.723Z,10.88
2019-03-27T11:02:40.239Z,10.93
2019-03-27T11:05:09.849Z,10.92
2019-03-27T11:07:39.157Z,10.88
2019-03-27T11:10:09.832Z,10.97
2019-03-27T11:12:39.580Z,11.09
2019-03-27T11:15:09.550Z,11.13
2019-03-27T11:17:39.138Z,11.28
2019-03-27T11:20:09.203Z,11.50
2019-03-27T11:22:38.617Z,11.58
2019-03-27T11:25:08.178Z,11.70
2019-03-27T11:27:37.542Z,11.94
2019-03-27T11:30:09.510Z,12.09
2019-03-27T11:32:38.844Z,12.24
2019-03-27T11:35:09.683Z,12.26
2019-03-27T11:37:39.022Z,12.29
2019-03-27T11:40:08.677Z,12.34
2019-03-27T11:42:38.073Z,12.35
2019-03-27T11:45:09.380Z,12.30
2019-03-27T11:47:38.704Z,12.30
2019-03-27T11:50:09.740Z,12.18
2019-03-27T11:52:39.066Z,12.14
2019-03-27T11:55:08.728Z,12.10
2019-03-27T11:57:38.357Z,12.05
2019-03-27T12:00:11.484Z,12.10
2019-03-27T12:02:41.139Z,12.24
2019-03-27T12:05:10.699Z,12.40
2019-03-27T12:07:40.032Z,12.68
2019-03-27T12:10:10.088Z,12.93
2019-03-27T12:12:39.421Z,13.33
2019-03-27T12:15:09.091Z,13.77
2019-03-27T12:17:38.408Z,14.33
2019-03-27T12:20:07.961Z,15.06
2019-03-27T12:22:37.298Z,15.55
2019-03-27T12:25:06.860Z,16.16
2019-03-27T12:27:36.193Z,16.79
2019-03-27T12:30:07.261Z,17.24
2019-03-27T12:32:36.718Z,17.16
2019-03-27T12:35:06.379Z,17.58
2019-03-27T12:37:35.700Z,17.87
2019-03-27T12:40:11.364Z,17.19
2019-03-27T12:42:37.603Z,17.63
2019-03-27T12:45:07.571Z,17.42
2019-03-27T12:47:36.899Z,17.42
2019-03-27T12:50:08.535Z,17.23
2019-03-27T12:52:37.944Z,16.31
2019-03-27T12:55:08.041Z,16.52
2019-03-27T12:57:37.367Z,15.97
2019-03-27T13:00:09.804Z,16.13
2019-03-27T13:02:39.156Z,16.14
2019-03-27T13:05:08.457Z,15.49
2019-03-27T13:07:49.514Z,15.15
2019-03-27T13:10:09.481Z,15.07
2019-03-27T13:12:39.882Z,15.06
2019-03-27T13:15:09.380Z,15.05
2019-03-27T13:17:38.705Z,14.76
2019-03-27T13:20:08.882Z,14.76
2019-03-27T13:22:38.649Z,14.88
2019-03-27T13:25:09.362Z,14.76
2019-03-27T13:27:39.605Z,14.75
2019-03-27T13:30:09.685Z,14.74
2019-03-27T13:32:39.007Z,14.53
2019-03-27T13:35:09.442Z,14.45
2019-03-27T13:37:38.760Z,14.37
2019-03-27T13:40:09.793Z,14.32
2019-03-27T13:42:39.123Z,14.32
2019-03-27T13:45:08.971Z,14.28
2019-03-27T13:47:38.525Z,14.09
2019-03-27T13:50:12.951Z,14.12
2019-03-27T13:52:40.848Z,14.12
2019-03-27T13:55:10.727Z,14.09
2019-03-27T13:57:40.049Z,14.12
2019-03-27T14:00:12.688Z,14.12
2019-03-27T14:02:42.014Z,13.99
2019-03-27T14:05:12.548Z,14.02
2019-03-27T14:07:41.872Z,14.00
2019-03-27T14:10:11.640Z,14.01
2019-03-27T14:12:40.964Z,13.94
2019-03-27T14:15:10.976Z,13.82
2019-03-27T14:17:40.307Z,13.79
2019-03-27T14:20:10.388Z,13.80
2019-03-27T14:22:39.712Z,13.89
2019-03-27T14:25:10.440Z,13.94
2019-03-27T14:27:39.763Z,13.95
2019-03-27T14:30:12.528Z,13.96
2019-03-27T14:32:41.847Z,14.03
2019-03-27T14:35:11.462Z,14.11
2019-03-27T14:37:40.785Z,14.08
2019-03-27T14:40:10.458Z,14.06
2019-03-27T14:42:39.777Z,14.15
2019-03-27T14:45:09.644Z,14.19
2019-03-27T14:47:38.969Z,14.26
2019-03-27T14:50:09.445Z,14.28
2019-03-27T14:52:38.834Z,14.34
2019-03-27T14:55:08.512Z,14.31
2019-03-27T14:57:38.374Z,14.33
2019-03-27T15:00:09.742Z,14.34
2019-03-27T15:02:39.208Z,14.35
2019-03-27T15:05:09.249Z,14.32
2019-03-27T15:07:38.578Z,14.30
2019-03-27T15:10:09.252Z,14.32
2019-03-27T15:12:38.833Z,14.29
2019-03-27T15:15:09.686Z,14.11
2019-03-27T15:17:39.138Z,13.83
2019-03-27T15:20:10.931Z,13.84
2019-03-27T15:22:40.551Z,13.89
2019-03-27T15:25:10.672Z,13.87
2019-03-27T15:27:41.017Z,13.78
2019-03-27T15:30:13.461Z,13.82
2019-03-27T15:32:43.056Z,13.82
2019-03-27T15:35:12.521Z,13.88
2019-03-27T15:37:41.855Z,13.87
2019-03-27T15:40:13.321Z,13.85
2019-03-27T15:42:43.307Z,13.85
2019-03-27T15:45:12.793Z,13.89
2019-03-27T15:47:42.113Z,13.89
2019-03-27T15:50:11.512Z,13.87
2019-03-27T15:52:41.643Z,13.82
2019-03-27T15:55:11.212Z,13.80
2019-03-27T15:57:40.778Z,13.86
2019-03-27T16:00:11.917Z,13.89
2019-03-27T16:02:41.325Z,13.91
2019-03-27T16:05:11.976Z,13.86
2019-03-27T16:07:41.307Z,13.92
2019-03-27T16:10:10.906Z,13.96
2019-03-27T16:12:40.243Z,13.99
2019-03-27T16:15:10.505Z,14.02
2019-03-27T16:17:39.838Z,14.09
2019-03-27T16:20:10.104Z,14.10
2019-03-27T16:22:49.891Z,14.04
2019-03-27T16:25:10.605Z,14.02
2019-03-27T16:27:40.914Z,14.02
2019-03-27T16:30:11.375Z,13.99
2019-03-27T16:32:40.761Z,13.88
2019-03-27T16:35:10.158Z,13.82
2019-03-27T16:37:39.479Z,13.80
2019-03-27T16:40:08.946Z,13.80
2019-03-27T16:42:38.269Z,13.76
2019-03-27T16:45:08.339Z,13.71
2019-03-27T16:47:37.973Z,13.66
2019-03-27T16:50:08.209Z,13.61
2019-03-27T16:52:37.535Z,13.51
2019-03-27T16:55:08.112Z,13.36
2019-03-27T16:57:37.443Z,13.35
2019-03-27T17:00:10.771Z,13.33
2019-03-27T17:02:40.098Z,13.17
2019-03-27T17:05:09.501Z,13.04
2019-03-27T17:07:39.153Z,12.97
2019-03-27T17:10:09.822Z,12.96
2019-03-27T17:12:39.149Z,12.94
2019-03-27T17:15:08.722Z,12.92
2019-03-27T17:17:38.058Z,12.87
2019-03-27T17:20:12.297Z,12.82
2019-03-27T17:22:41.695Z,12.68
2019-03-27T17:25:11.195Z,12.54
2019-03-27T17:27:40.520Z,12.50
2019-03-27T17:30:11.297Z,12.47
2019-03-27T17:32:40.789Z,12.46
2019-03-27T17:35:10.390Z,12.46
2019-03-27T17:37:39.700Z,12.47
2019-03-27T17:40:09.999Z,12.40
2019-03-27T17:42:39.334Z,12.43
2019-03-27T17:45:09.110Z,12.34
2019-03-27T17:47:38.512Z,12.30
2019-03-27T17:50:08.222Z,12.32
2019-03-27T17:52:38.426Z,12.32
2019-03-27T17:55:08.737Z,12.28
2019-03-27T17:57:38.403Z,12.21
2019-03-27T18:00:09.845Z,12.19
2019-03-27T18:02:39.232Z,12.12
2019-03-27T18:05:08.840Z,12.10
2019-03-27T18:07:38.280Z,12.08
2019-03-27T18:10:08.275Z,12.04
2019-03-27T18:12:37.701Z,11.88
2019-03-27T18:15:07.841Z,11.89
2019-03-27T18:17:37.156Z,11.89
2019-03-27T18:20:06.878Z,11.82
2019-03-27T18:22:36.207Z,11.81
2019-03-27T18:25:07.285Z,11.71
2019-03-27T18:27:36.620Z,11.72
2019-03-27T18:30:08.772Z,11.70
2019-03-27T18:32:38.347Z,11.65
2019-03-27T18:35:07.968Z,11.63
2019-03-27T18:37:37.297Z,11.60
2019-03-27T18:40:07.065Z,11.56
2019-03-27T18:42:37.415Z,11.54
2019-03-27T18:45:07.399Z,11.54
2019-03-27T18:47:37.688Z,11.52
2019-03-27T18:50:07.943Z,11.46
2019-03-27T18:52:37.229Z,11.49
2019-03-27T18:55:07.784Z,11.36
2019-03-27T18:57:37.189Z,11.40
2019-03-27T19:00:08.470Z,11.35
2019-03-27T19:02:38.813Z,11.35
2019-03-27T19:05:08.704Z,11.28
2019-03-27T19:07:38.109Z,11.34
2019-03-27T19:10:08.200Z,11.35
2019-03-27T19:12:37.537Z,11.32
2019-03-27T19:15:07.408Z,11.31
2019-03-27T19:17:36.737Z,11.30
2019-03-27T19:20:07.015Z,11.29
2019-03-27T19:22:36.359Z,11.28
2019-03-27T19:25:07.397Z,11.27
2019-03-27T19:27:37.701Z,11.26
2019-03-27T19:30:08.982Z,11.22
2019-03-27T19:32:38.398Z,11.17
2019-03-27T19:35:09.130Z,11.16
2019-03-27T19:37:38.531Z,11.15
2019-03-27T19:40:08.125Z,11.12
2019-03-27T19:42:37.833Z,11.06
2019-03-27T19:45:07.328Z,11.03
2019-03-27T19:47:37.151Z,11.02
2019-03-27T19:50:07.419Z,11.04
2019-03-27T19:52:36.973Z,11.04
2019-03-27T19:55:06.462Z,11.09
2019-03-27T19:57:35.799Z,11.10
2019-03-27T20:00:10.142Z,11.07
2019-03-27T20:02:39.681Z,11.04
2019-03-27T20:05:09.555Z,11.01
2019-03-27T20:07:38.885Z,11.00
2019-03-27T20:10:09.197Z,10.99
2019-03-27T20:12:38.533Z,10.95
2019-03-27T20:15:12.104Z,10.90
2019-03-27T20:17:39.808Z,10.90
2019-03-27T20:20:09.988Z,10.84
2019-03-27T20:22:39.324Z,10.87
2019-03-27T20:25:09.490Z,10.89
2019-03-27T20:27:39.077Z,10.93
2019-03-27T20:30:14.434Z,10.94
2019-03-27T20:32:44.034Z,10.95
2019-03-27T20:35:13.447Z,10.94
2019-03-27T20:37:42.779Z,10.94
2019-03-27T20:40:13.999Z,10.91
2019-03-27T20:42:44.302Z,10.91
2019-03-27T20:45:14.048Z,10.90
2019-03-27T20:47:43.434Z,10.86
2019-03-27T20:50:13.013Z,10.87
2019-03-27T20:52:42.339Z,10.89
2019-03-27T20:55:12.019Z,10.83
2019-03-27T20:57:41.347Z,10.79
2019-03-27T21:00:12.897Z,10.80
2019-03-27T21:02:42.618Z,10.80
2019-03-27T21:05:12.103Z,10.76
2019-03-27T21:07:41.527Z,10.75
2019-03-27T21:10:11.006Z,10.70
2019-03-27T21:12:40.354Z,10.69
2019-03-27T21:15:10.124Z,10.67
2019-03-27T21:17:39.684Z,10.67
2019-03-27T21:20:09.861Z,10.66
2019-03-27T21:22:39.188Z,10.65
2019-03-27T21:25:09.875Z,10.66
2019-03-27T21:27:39.341Z,10.64
2019-03-27T21:30:09.449Z,10.67
2019-03-27T21:32:38.856Z,10.65
2019-03-27T21:35:08.670Z,10.66
2019-03-27T21:37:38.001Z,10.71
2019-03-27T21:40:08.578Z,10.71
2019-03-27T21:42:38.911Z,10.74
2019-03-27T21:45:10.394Z,10.74
2019-03-27T21:47:39.728Z,10.79
2019-03-27T21:50:10.510Z,10.78
2019-03-27T21:52:40.066Z,10.79
2019-03-27T21:55:21.899Z,10.75
2019-03-27T21:57:41.066Z,10.69
2019-03-27T22:00:10.851Z,10.71
2019-03-27T22:02:40.221Z,10.73
2019-03-27T22:05:09.599Z,10.71
2019-03-27T22:07:38.949Z,10.67
2019-03-27T22:10:09.024Z,10.60
2019-03-27T22:12:38.778Z,10.59
2019-03-27T22:15:08.972Z,10.57
2019-03-27T22:17:38.646Z,10.55
2019-03-27T22:20:08.733Z,10.51
2019-03-27T22:22:38.057Z,10.48
2019-03-27T22:25:08.038Z,10.49
2019-03-27T22:27:37.376Z,10.55
2019-03-27T22:30:08.776Z,10.51
2019-03-27T22:32:38.147Z,10.49
2019-03-27T22:35:08.327Z,10.46
2019-03-27T22:37:37.664Z,10.44
2019-03-27T22:40:07.438Z,10.42
2019-03-27T22:42:36.775Z,10.40
2019-03-27T22:45:07.347Z,10.40
2019-03-27T22:47:37.018Z,10.40
2019-03-27T22:50:08.652Z,10.39
2019-03-27T22:52:38.369Z,10.40
2019-03-27T22:55:08.179Z,10.36
2019-03-27T22:57:37.514Z,10.30
2019-03-27T23:00:13.760Z,10.30
2019-03-27T23:02:44.785Z,10.31
2019-03-27T23:05:14.286Z,10.29
2019-03-27T23:07:43.618Z,10.26
2019-03-27T23:10:13.190Z,10.22
2019-03-27T23:12:42.828Z,10.20
2019-03-27T23:15:12.327Z,10.20
2019-03-27T23:17:41.765Z,10.22
2019-03-27T23:20:11.284Z,10.26
2019-03-27T23:22:40.670Z,10.26
2019-03-27T23:25:10.482Z,10.24
2019-03-27T23:27:39.892Z,10.20
2019-03-27T23:30:10.492Z,10.18
2019-03-27T23:32:40.120Z,10.15
2019-03-27T23:35:09.519Z,10.11
2019-03-27T23:37:38.866Z,10.07
2019-03-27T23:40:09.544Z,10.04
2019-03-27T23:42:38.882Z,10.04
2019-03-27T23:45:09.053Z,10.02
2019-03-27T23:47:38.774Z,10.06
2019-03-27T23:50:09.848Z,10.04
2019-03-27T23:52:40.378Z,9.99
2019-03-27T23:55:09.843Z,9.95
2019-03-27T23:57:39.190Z,9.93
